Terminal Aerodrome Forecast
Issued by NWS Charleston, WV

Current Version | Previous Version | Text Only | Print | Product List | Glossary On
Versions: 1 2 3 4 5 6 7 8 9 10 11 12 13 14 15 16 17 18 19 20 21 22 23 24 25
000
FTUS41 KRLX 310300 AAA
TAFBKW
TAF AMD
KBKW 310301Z 3103/3124 00000KT P6SM SKC
     FM311200 00000KT P6SM BKN080
     FM312000 27004KT P6SM OVC030
     FM312100 27004KT 5SM -SHRA BR OVC025
     FM312300 31004KT 2SM -SHRA BR OVC015=

USA.gov is the U.S. government's official web portal to all federal, state and local government web resources and services.